Time;durP1;ratioP1;P1;durP2;ratioP2;P2;SDS_P1;SDS_P2;PMS_P1;PMS_P2;Temp;Humidity;BMP_temperature;BMP_pressure;BME280_temperature;BME280_humidity;BME280_pressure;Samples;Min_cycle;Max_cycle;Signal;HPM_P1;HPM_P2
2022/01/27 21:28:02;;;;;;;50.92;41.88;;;-0.10;82.90;;;;;;5103195;27;20711;-67
2022/01/27 21:30:28;;;;;;;49.30;44.42;;;0.00;84.70;;;;;;5070383;28;20039;-66
2022/01/27 21:32:54;;;;;;;56.50;42.25;;;0.10;86.00;;;;;;5066160;28;20402;-67
2022/01/27 21:35:21;;;;;;;49.17;40.63;;;0.30;86.50;;;;;;5069744;28;20036;-67
2022/01/27 21:37:49;;;;;;;54.45;42.10;;;0.50;86.70;;;;;;5069054;28;20028;-66
2022/01/27 21:40:15;;;;;;;46.85;42.05;;;0.70;86.70;;;;;;5065447;28;20033;-65
2022/01/27 21:42:41;;;;;;;44.30;38.40;;;0.90;86.50;;;;;;5069077;28;20073;-65
2022/01/27 21:45:08;;;;;;;41.25;36.50;;;1.10;86.40;;;;;;5068826;28;20020;-66
2022/01/27 21:47:34;;;;;;;43.38;38.75;;;1.30;86.20;;;;;;5065090;28;20064;-66
2022/01/27 21:50:01;;;;;;;45.70;41.33;;;1.50;86.10;;;;;;5068864;28;20081;-66
2022/01/27 21:52:27;;;;;;;45.53;37.10;;;1.60;85.70;;;;;;5066931;28;20067;-66
2022/01/27 21:54:52;;;;;;;39.30;34.75;;;1.70;85.50;;;;;;5067930;28;20103;-66
2022/01/27 21:57:19;;;;;;;47.03;38.83;;;1.70;85.30;;;;;;5068265;28;20151;-66
2022/01/27 21:59:47;;;;;;;43.42;37.35;;;1.80;85.10;;;;;;5066275;28;20043;-66
2022/01/27 22:02:13;;;;;;;45.67;37.00;;;1.90;84.90;;;;;;5065486;28;20025;-67
2022/01/27 22:04:39;;;;;;;40.55;36.28;;;2.00;84.70;;;;;;5064202;28;20020;-66
2022/01/27 22:07:05;;;;;;;40.85;36.22;;;2.00;84.50;;;;;;5068026;28;20043;-67
2022/01/27 22:09:31;;;;;;;44.70;36.20;;;2.00;84.30;;;;;;5067520;28;20387;-66
2022/01/27 22:11:57;;;;;;;44.53;34.67;;;2.00;84.20;;;;;;5067405;28;20021;-66
2022/01/27 22:14:23;;;;;;;47.63;35.85;;;2.00;84.10;;;;;;5068717;28;20097;-66
2022/01/27 22:16:51;;;;;;;44.20;34.50;;;2.00;84.10;;;;;;5067362;28;20112;-66
2022/01/27 22:19:21;;;;;;;41.45;37.08;;;2.10;84.20;;;;;;5067294;28;20108;-66
2022/01/27 22:21:49;;;;;;;37.30;33.83;;;2.20;84.20;;;;;;5067208;28;20055;-66
2022/01/27 22:24:15;;;;;;;47.40;41.88;;;2.30;84.20;;;;;;5067065;28;20029;-66
2022/01/27 22:26:42;;;;;;;45.22;35.33;;;2.30;84.00;;;;;;5066743;28;20095;-67
2022/01/27 22:29:08;;;;;;;39.15;34.90;;;2.30;83.80;;;;;;5068536;28;20021;-66
2022/01/27 22:31:35;;;;;;;38.40;32.55;;;2.30;83.60;;;;;;5067010;28;20417;-67
2022/01/27 22:34:01;;;;;;;39.53;33.22;;;2.30;83.50;;;;;;5067188;28;20052;-65
2022/01/27 22:36:26;;;;;;;46.45;36.80;;;2.30;83.40;;;;;;5067000;28;20024;-67
2022/01/27 22:38:52;;;;;;;36.60;32.53;;;2.30;83.30;;;;;;5056609;28;20017;-65
2022/01/27 22:41:18;;;;;;;44.97;36.20;;;2.30;83.30;;;;;;5054867;28;20027;-66
2022/01/27 22:43:44;;;;;;;40.72;34.10;;;2.20;83.20;;;;;;5053454;28;20037;-67
2022/01/27 22:46:10;;;;;;;35.80;30.95;;;2.20;83.20;;;;;;5054032;28;20029;-66
2022/01/27 22:48:36;;;;;;;43.15;38.83;;;2.30;83.30;;;;;;5054665;28;20029;-66
2022/01/27 22:51:02;;;;;;;38.90;34.53;;;2.20;83.20;;;;;;5054430;28;20494;-65
2022/01/27 22:53:28;;;;;;;43.50;34.72;;;2.20;83.20;;;;;;5054618;28;20463;-66
2022/01/27 22:55:54;;;;;;;39.30;35.28;;;2.30;83.20;;;;;;5053379;28;20097;-65
2022/01/27 22:58:20;;;;;;;40.03;33.60;;;2.30;83.20;;;;;;5054655;28;20096;-65
2022/01/27 23:00:46;;;;;;;37.03;33.10;;;2.30;83.20;;;;;;5054355;28;20036;-65
2022/01/27 23:03:12;;;;;;;37.55;32.33;;;2.30;83.10;;;;;;5053175;28;20017;-65
2022/01/27 23:05:39;;;;;;;45.15;37.55;;;2.30;83.10;;;;;;5055035;28;20067;-65
2022/01/27 23:08:09;;;;;;;36.10;32.33;;;2.30;83.10;;;;;;5054597;28;20382;-65
2022/01/27 23:10:39;;;;;;;35.28;31.58;;;2.30;83.00;;;;;;5056099;28;20545;-64
2022/01/27 23:13:20;;;;;;;40.50;34.47;;;2.40;83.10;;;;;;5054544;28;20104;-66
2022/01/27 23:16:06;;;;;;;39.03;32.83;;;2.40;83.00;;;;;;5054104;28;20032;-65
2022/01/27 23:18:52;;;;;;;39.30;35.00;;;2.40;82.90;;;;;;5051056;28;20029;-65
2022/01/27 23:21:26;;;;;;;41.20;36.10;;;2.40;82.80;;;;;;5054493;28;20095;-65
2022/01/27 23:23:58;;;;;;;39.75;35.35;;;2.40;82.70;;;;;;5048652;28;20033;-65
2022/01/27 23:26:48;;;;;;;35.63;32.03;;;2.40;82.70;;;;;;5052706;28;20057;-65
2022/01/27 23:29:12;;;;;;;43.78;36.40;;;2.40;82.80;;;;;;5054581;28;20045;-65
2022/01/27 23:31:41;;;;;;;38.80;34.70;;;2.40;82.70;;;;;;5053980;28;20032;-65
2022/01/27 23:34:08;;;;;;;37.63;32.78;;;2.40;82.80;;;;;;5054197;28;20047;-65
2022/01/27 23:47:20;;;;;;;37.55;33.40;;;2.60;82.60;;;;;;5055211;28;20086;-65
2022/01/27 23:52:38;;;;;;;31.23;28.48;;;2.60;82.40;;;;;;5055146;28;20056;-65
